Time;durP1;ratioP1;P1;durP2;ratioP2;P2;SDS_P1;SDS_P2;PMS_P1;PMS_P2;Temp;Humidity;BMP_temperature;BMP_pressure;BME280_temperature;BME280_humidity;BME280_pressure;Samples;Min_cycle;Max_cycle;Signal;HPM_P1;HPM_P2
2022/03/28 00:01:18;;;;;;;25.38;16.00;;;;;;;;;;4954994;28;20102;-69
2022/03/28 00:03:45;;;;;;;25.27;16.60;;;;;;;;;;4954926;28;20031;-69
2022/03/28 00:06:11;;;;;;;24.85;16.20;;;;;;;;;;4955006;28;20058;-69
2022/03/28 00:08:38;;;;;;;27.15;16.52;;;;;;;;;;4955585;28;20050;-70
2022/03/28 00:11:08;;;;;;;33.92;18.10;;;;;;;;;;4954992;28;20144;-70
2022/03/28 00:13:35;;;;;;;32.38;17.33;;;;;;;;;;4955658;28;20498;-69
2022/03/28 00:16:02;;;;;;;28.48;16.52;;;;;;;;;;4954946;28;20050;-72
2022/03/28 00:18:28;;;;;;;27.63;17.92;;;;;;;;;;4954994;28;20410;-72
2022/03/28 00:20:55;;;;;;;28.88;17.45;;;;;;;;;;4953875;29;20023;-68
2022/03/28 00:23:22;;;;;;;36.30;19.80;;;;;;;;;;4955085;28;20507;-68
2022/03/28 00:25:49;;;;;;;31.77;20.13;;;;;;;;;;4949178;28;20027;-68
2022/03/28 00:28:15;;;;;;;39.13;19.50;;;;;;;;;;4946432;29;20494;-70
2022/03/28 00:30:41;;;;;;;33.92;18.23;;;;;;;;;;4953470;28;20035;-69
2022/03/28 00:33:08;;;;;;;34.28;17.60;;;;;;;;;;4953417;28;20039;-70
2022/03/28 00:35:35;;;;;;;35.50;17.65;;;;;;;;;;4954657;28;20035;-69
2022/03/28 00:38:03;;;;;;;36.38;19.30;;;;;;;;;;4954515;28;20396;-69
2022/03/28 00:40:31;;;;;;;36.25;17.65;;;;;;;;;;4954916;28;20023;-73
2022/03/28 00:43:03;;;;;;;29.52;17.05;;;;;;;;;;4954717;28;20039;-70
2022/03/28 00:45:31;;;;;;;29.10;17.25;;;;;;;;;;4954961;29;20031;-68
2022/03/28 00:47:57;;;;;;;30.35;15.13;;;;;;;;;;4952720;28;20035;-69
2022/03/28 00:50:23;;;;;;;29.63;17.65;;;;;;;;;;4954937;28;20031;-68
2022/03/28 00:52:50;;;;;;;25.98;15.75;;;;;;;;;;4955592;28;20082;-68
2022/03/28 00:55:17;;;;;;;24.23;14.35;;;;;;;;;;4956255;28;20463;-69
2022/03/28 00:57:43;;;;;;;23.13;13.82;;;;;;;;;;4954840;28;20029;-69
2022/03/28 01:00:10;;;;;;;22.90;14.32;;;;;;;;;;4955815;28;20039;-68
2022/03/28 01:02:37;;;;;;;25.58;15.00;;;;;;;;;;4955597;28;20471;-69
2022/03/28 01:05:03;;;;;;;24.75;14.05;;;;;;;;;;4955605;28;20042;-69
2022/03/28 01:07:29;;;;;;;26.05;14.73;;;;;;;;;;4955366;28;20031;-68
2022/03/28 01:09:56;;;;;;;35.40;15.52;;;;;;;;;;4955256;28;20047;-68
2022/03/28 01:12:25;;;;;;;30.75;16.05;;;;;;;;;;4955058;28;20558;-68
2022/03/28 01:14:52;;;;;;;21.48;14.40;;;;;;;;;;4954944;28;20043;-68
2022/03/28 01:20:03;;;;;;;21.02;13.88;;;;;;;;;;4955258;28;20044;-69
2022/03/28 01:22:28;;;;;;;31.98;15.70;;;;;;;;;;4950783;28;20023;-69
2022/03/28 01:24:58;;;;;;;26.17;14.70;;;;;;;;;;4954758;28;20061;-69
2022/03/28 01:27:25;;;;;;;32.83;14.70;;;;;;;;;;4956187;28;20023;-71
2022/03/28 01:29:51;;;;;;;25.88;14.15;;;;;;;;;;4954615;28;20031;-73
2022/03/28 01:32:16;;;;;;;23.75;14.45;;;;;;;;;;4949449;28;20668;-69
2022/03/28 01:34:42;;;;;;;21.20;13.27;;;;;;;;;;4953521;28;20050;-73
2022/03/28 01:37:08;;;;;;;21.33;13.57;;;;;;;;;;4953941;28;20078;-70
2022/03/28 01:39:34;;;;;;;22.88;14.15;;;;;;;;;;4954119;28;20419;-71
2022/03/28 01:42:00;;;;;;;28.23;16.17;;;;;;;;;;4953640;28;20055;-72
2022/03/28 01:44:27;;;;;;;27.00;14.75;;;;;;;;;;4953514;28;20031;-72
2022/03/28 01:46:52;;;;;;;26.60;14.45;;;;;;;;;;4953589;28;20031;-69
2022/03/28 01:49:20;;;;;;;20.80;14.18;;;;;;;;;;4953924;29;20513;-73
2022/03/28 01:51:47;;;;;;;23.27;14.68;;;;;;;;;;4953623;29;20027;-73
2022/03/28 01:54:14;;;;;;;23.25;15.25;;;;;;;;;;4953769;28;20101;-72
2022/03/28 01:56:41;;;;;;;28.45;16.85;;;;;;;;;;4953599;28;20371;-70
2022/03/28 01:59:09;;;;;;;27.05;16.55;;;;;;;;;;4948209;28;20218;-71
2022/03/28 02:01:35;;;;;;;23.92;15.30;;;;;;;;;;4953445;28;20026;-71
2022/03/28 02:04:02;;;;;;;25.65;15.63;;;;;;;;;;4949474;28;20367;-74
2022/03/28 02:06:28;;;;;;;37.90;17.73;;;;;;;;;;4953436;28;20501;-71
2022/03/28 02:08:54;;;;;;;35.65;18.67;;;;;;;;;;4953702;28;20031;-75
2022/03/28 02:11:20;;;;;;;29.88;17.98;;;;;;;;;;4953297;28;20054;-69
2022/03/28 02:13:47;;;;;;;30.95;17.38;;;;;;;;;;4953395;28;20039;-71
2022/03/28 02:16:13;;;;;;;25.48;17.17;;;;;;;;;;4953259;28;20355;-73
2022/03/28 02:18:39;;;;;;;31.17;18.35;;;;;;;;;;4953286;28;20035;-71
2022/03/28 02:21:05;;;;;;;28.75;17.80;;;;;;;;;;4952975;28;20031;-74
2022/03/28 02:23:31;;;;;;;29.30;18.08;;;;;;;;;;4952895;28;20046;-72
2022/03/28 02:25:57;;;;;;;29.58;16.77;;;;;;;;;;4952877;28;20250;-73
2022/03/28 02:28:25;;;;;;;24.15;16.50;;;;;;;;;;4955100;28;20047;-72
2022/03/28 02:30:51;;;;;;;28.23;15.85;;;;;;;;;;4957125;28;20027;-72
2022/03/28 02:33:17;;;;;;;27.50;17.38;;;;;;;;;;4956687;28;20533;-70
2022/03/28 02:35:43;;;;;;;28.20;16.67;;;;;;;;;;4956120;29;20027;-69
2022/03/28 02:38:09;;;;;;;31.65;17.35;;;;;;;;;;4956642;28;20079;-69
2022/03/28 02:40:36;;;;;;;29.02;16.88;;;;;;;;;;4956953;28;20063;-70
2022/03/28 02:43:03;;;;;;;25.40;15.73;;;;;;;;;;4957339;28;20038;-70
2022/03/28 02:45:31;;;;;;;26.05;15.88;;;;;;;;;;4957585;28;20019;-72
2022/03/28 02:47:59;;;;;;;31.33;15.27;;;;;;;;;;4956804;28;20043;-73
2022/03/28 02:50:26;;;;;;;26.75;15.98;;;;;;;;;;4956996;28;20047;-71
2022/03/28 02:52:51;;;;;;;26.45;16.55;;;;;;;;;;4956814;28;20035;-69
2022/03/28 02:55:17;;;;;;;27.17;14.98;;;;;;;;;;4956839;28;20039;-75
2022/03/28 02:57:43;;;;;;;31.48;18.40;;;;;;;;;;4956270;28;20039;-72
2022/03/28 03:00:10;;;;;;;26.98;16.00;;;;;;;;;;4956324;28;20426;-73
2022/03/28 03:02:41;;;;;;;23.48;14.07;;;;;;;;;;4956814;28;20035;-72
2022/03/28 03:05:12;;;;;;;22.70;14.60;;;;;;;;;;4956552;28;20074;-70
2022/03/28 03:07:38;;;;;;;24.13;14.35;;;;;;;;;;4956452;28;20032;-73
2022/03/28 03:10:07;;;;;;;23.23;14.38;;;;;;;;;;4956420;28;20040;-70
2022/03/28 03:12:32;;;;;;;22.45;14.10;;;;;;;;;;4956878;28;20081;-71
2022/03/28 03:14:58;;;;;;;20.98;13.02;;;;;;;;;;4956908;28;20051;-73
2022/03/28 03:17:24;;;;;;;22.27;13.57;;;;;;;;;;4956321;28;20039;-72
2022/03/28 03:19:50;;;;;;;25.50;15.48;;;;;;;;;;4956576;28;20031;-71
2022/03/28 03:22:17;;;;;;;26.50;14.65;;;;;;;;;;4955368;28;20098;-72
2022/03/28 03:24:44;;;;;;;30.35;15.98;;;;;;;;;;4956367;28;20482;-72
2022/03/28 03:27:11;;;;;;;21.33;14.32;;;;;;;;;;4956078;28;20498;-71
2022/03/28 03:29:37;;;;;;;27.20;15.43;;;;;;;;;;4956009;28;20027;-68
2022/03/28 03:32:04;;;;;;;27.17;15.35;;;;;;;;;;4956113;28;20035;-68
2022/03/28 03:34:31;;;;;;;25.15;13.60;;;;;;;;;;4956233;28;20027;-70
2022/03/28 03:36:57;;;;;;;28.73;14.60;;;;;;;;;;4956093;28;20050;-70
2022/03/28 03:39:25;;;;;;;22.15;13.75;;;;;;;;;;4955325;28;20103;-74
2022/03/28 03:41:52;;;;;;;26.35;15.00;;;;;;;;;;4956114;28;20090;-74
2022/03/28 03:44:18;;;;;;;21.17;14.00;;;;;;;;;;4954715;28;20030;-72
2022/03/28 03:46:43;;;;;;;31.10;15.80;;;;;;;;;;4955567;29;20031;-70
2022/03/28 03:49:09;;;;;;;28.48;13.93;;;;;;;;;;4955668;28;20083;-70
2022/03/28 03:51:36;;;;;;;22.65;13.05;;;;;;;;;;4955727;28;20035;-70
2022/03/28 03:54:02;;;;;;;22.40;13.15;;;;;;;;;;4955676;28;20382;-72
2022/03/28 03:56:30;;;;;;;23.73;13.52;;;;;;;;;;4953196;28;20043;-73
2022/03/28 03:58:57;;;;;;;21.98;13.20;;;;;;;;;;4954246;29;20023;-71
2022/03/28 04:01:26;;;;;;;24.13;14.35;;;;;;;;;;4955731;28;20127;-69
2022/03/28 04:03:52;;;;;;;21.83;13.25;;;;;;;;;;4956250;28;20098;-75
2022/03/28 04:06:17;;;;;;;33.38;14.40;;;;;;;;;;4955944;28;20090;-71
2022/03/28 04:08:43;;;;;;;26.23;14.95;;;;;;;;;;4955990;28;20031;-74
2022/03/28 04:11:10;;;;;;;22.35;12.07;;;;;;;;;;4955681;28;20560;-72
2022/03/28 04:13:36;;;;;;;21.95;13.02;;;;;;;;;;4956349;28;20385;-73
2022/03/28 04:16:03;;;;;;;31.27;14.95;;;;;;;;;;4954082;28;20162;-74
2022/03/28 04:18:29;;;;;;;46.03;17.15;;;;;;;;;;4956437;28;20031;-72
2022/03/28 04:20:55;;;;;;;25.00;14.13;;;;;;;;;;4956536;28;20031;-75
2022/03/28 04:23:23;;;;;;;23.90;13.25;;;;;;;;;;4955770;28;20061;-71
2022/03/28 04:25:49;;;;;;;28.08;14.43;;;;;;;;;;4956040;28;20094;-73
2022/03/28 04:28:15;;;;;;;21.50;13.48;;;;;;;;;;4955854;28;20039;-70
2022/03/28 04:30:41;;;;;;;26.45;13.65;;;;;;;;;;4955895;28;20114;-74
2022/03/28 04:33:09;;;;;;;30.55;13.35;;;;;;;;;;4955934;28;20023;-69
2022/03/28 04:35:39;;;;;;;27.70;12.95;;;;;;;;;;4955642;28;20043;-73
2022/03/28 04:38:06;;;;;;;27.80;13.57;;;;;;;;;;4955390;28;20039;-73
2022/03/28 04:40:36;;;;;;;22.83;14.07;;;;;;;;;;4955638;28;20031;-72
2022/03/28 04:43:03;;;;;;;24.85;12.85;;;;;;;;;;4955858;28;20418;-71
2022/03/28 04:45:30;;;;;;;31.02;13.30;;;;;;;;;;4953822;28;20031;-72
2022/03/28 04:47:57;;;;;;;29.23;13.63;;;;;;;;;;4950248;28;20174;-72
2022/03/28 04:50:23;;;;;;;25.40;12.98;;;;;;;;;;4938833;28;20067;-78
2022/03/28 04:52:49;;;;;;;26.90;13.77;;;;;;;;;;4947954;28;20055;-76
2022/03/28 04:55:14;;;;;;;22.75;13.02;;;;;;;;;;4937040;28;20038;-77
2022/03/28 04:57:40;;;;;;;29.63;14.85;;;;;;;;;;4935693;29;20129;-75
2022/03/28 05:00:09;;;;;;;29.15;14.82;;;;;;;;;;4935446;29;20024;-76
2022/03/28 05:02:35;;;;;;;31.05;15.35;;;;;;;;;;4935306;29;20039;-76
2022/03/28 05:05:03;;;;;;;28.88;13.95;;;;;;;;;;4952244;29;20433;-76
2022/03/28 05:07:30;;;;;;;31.67;16.13;;;;;;;;;;4954036;28;20035;-77
2022/03/28 05:09:57;;;;;;;39.50;16.95;;;;;;;;;;4954031;28;20081;-74
2022/03/28 05:12:24;;;;;;;40.15;16.23;;;;;;;;;;4954069;28;20059;-78
2022/03/28 05:14:50;;;;;;;38.72;16.10;;;;;;;;;;4953081;28;20035;-76
2022/03/28 05:17:24;;;;;;;30.55;14.93;;;;;;;;;;4954476;28;20050;-76
2022/03/28 05:19:51;;;;;;;30.67;14.90;;;;;;;;;;4954277;28;20078;-76
2022/03/28 05:22:17;;;;;;;32.13;13.80;;;;;;;;;;4940044;28;20031;-77
2022/03/28 05:24:43;;;;;;;34.15;14.93;;;;;;;;;;4949385;28;20201;-74
2022/03/28 05:27:09;;;;;;;26.00;13.85;;;;;;;;;;4954298;28;20098;-75
2022/03/28 05:29:35;;;;;;;25.45;13.70;;;;;;;;;;4953186;28;20410;-76
2022/03/28 05:32:01;;;;;;;34.30;14.82;;;;;;;;;;4954910;28;20027;-75
2022/03/28 05:34:30;;;;;;;25.92;13.93;;;;;;;;;;4954937;28;20471;-75
2022/03/28 05:36:58;;;;;;;22.02;13.25;;;;;;;;;;4954599;28;20039;-77
2022/03/28 05:39:25;;;;;;;24.38;13.75;;;;;;;;;;4954429;28;20027;-76
2022/03/28 05:41:51;;;;;;;26.25;14.23;;;;;;;;;;4953499;29;20035;-74
2022/03/28 05:44:19;;;;;;;26.25;14.23;;;;;;;;;;4953392;28;20438;-75
2022/03/28 05:46:48;;;;;;;24.08;14.18;;;;;;;;;;4954186;28;20437;-76
2022/03/28 05:49:15;;;;;;;35.10;18.33;;;;;;;;;;4954618;28;20038;-75
2022/03/28 05:51:41;;;;;;;33.00;16.73;;;;;;;;;;4954247;28;20049;-74
2022/03/28 05:54:06;;;;;;;28.48;16.52;;;;;;;;;;4954393;28;20031;-75
2022/03/28 05:56:33;;;;;;;37.05;17.05;;;;;;;;;;4954206;28;20039;-75
2022/03/28 05:58:58;;;;;;;27.42;15.32;;;;;;;;;;4954850;28;20039;-74
2022/03/28 06:01:25;;;;;;;34.00;15.95;;;;;;;;;;4954491;28;20050;-76
2022/03/28 06:03:51;;;;;;;37.47;18.83;;;;;;;;;;4957900;28;20339;-77
2022/03/28 06:06:17;;;;;;;38.63;16.95;;;;;;;;;;4957748;28;20042;-76
2022/03/28 06:08:43;;;;;;;30.75;17.50;;;;;;;;;;4958059;28;20027;-77
2022/03/28 06:11:10;;;;;;;30.92;17.25;;;;;;;;;;4957945;28;20167;-76
2022/03/28 06:13:36;;;;;;;29.45;16.70;;;;;;;;;;4957935;28;20458;-77
2022/03/28 06:16:03;;;;;;;33.72;16.77;;;;;;;;;;4959389;28;20035;-79
2022/03/28 06:18:29;;;;;;;32.83;17.08;;;;;;;;;;4958153;28;20027;-79
2022/03/28 06:20:55;;;;;;;38.47;18.70;;;;;;;;;;4958593;28;20027;-77
2022/03/28 06:23:21;;;;;;;45.63;18.95;;;;;;;;;;4958745;28;20031;-78
2022/03/28 06:25:47;;;;;;;47.30;18.95;;;;;;;;;;4958700;28;20481;-75
2022/03/28 06:28:15;;;;;;;42.58;18.52;;;;;;;;;;4957875;28;20027;-78
2022/03/28 06:30:41;;;;;;;43.10;19.80;;;;;;;;;;4957429;28;20241;-78
2022/03/28 06:33:07;;;;;;;40.50;18.63;;;;;;;;;;4957457;28;20028;-78
2022/03/28 06:35:35;;;;;;;56.38;20.85;;;;;;;;;;4956643;29;20039;-79
2022/03/28 06:38:01;;;;;;;44.35;20.52;;;;;;;;;;4956579;28;20027;-79
2022/03/28 06:40:27;;;;;;;48.30;19.42;;;;;;;;;;4958045;28;20050;-78
2022/03/28 06:42:53;;;;;;;39.33;20.70;;;;;;;;;;4957848;28;20111;-77
2022/03/28 06:45:19;;;;;;;39.28;19.40;;;;;;;;;;4957981;28;20122;-77
2022/03/28 06:47:50;;;;;;;43.78;19.70;;;;;;;;;;4958057;28;20110;-76
2022/03/28 06:50:17;;;;;;;46.75;19.83;;;;;;;;;;4956371;28;21312;-77
2022/03/28 06:52:43;;;;;;;35.85;18.45;;;;;;;;;;4952932;28;20532;-74
2022/03/28 06:55:09;;;;;;;52.28;21.45;;;;;;;;;;4957486;28;20118;-73
2022/03/28 06:57:35;;;;;;;52.53;21.95;;;;;;;;;;4956251;28;20162;-79
2022/03/28 07:00:01;;;;;;;56.55;21.63;;;;;;;;;;4948500;28;20036;-76
2022/03/28 07:02:27;;;;;;;53.60;21.33;;;;;;;;;;4940134;28;20507;-77
2022/03/28 07:04:53;;;;;;;51.60;22.73;;;;;;;;;;4949100;29;20031;-78
2022/03/28 07:07:19;;;;;;;41.92;18.35;;;;;;;;;;4937721;29;20394;-76
2022/03/28 07:09:45;;;;;;;63.35;21.85;;;;;;;;;;4937533;29;20047;-74
2022/03/28 07:12:10;;;;;;;61.92;20.23;;;;;;;;;;4937858;29;20487;-76
2022/03/28 07:14:36;;;;;;;41.15;19.48;;;;;;;;;;4944463;28;20031;-74
2022/03/28 07:17:02;;;;;;;38.05;19.08;;;;;;;;;;4942704;29;20103;-74
2022/03/28 07:19:29;;;;;;;39.28;19.75;;;;;;;;;;4939648;29;20027;-74
2022/03/28 07:21:54;;;;;;;30.75;17.40;;;;;;;;;;4953212;28;20034;-74
2022/03/28 07:24:21;;;;;;;33.90;19.63;;;;;;;;;;4956642;28;20545;-76
2022/03/28 07:26:49;;;;;;;32.38;18.83;;;;;;;;;;4923968;29;20067;-77
2022/03/28 07:29:17;;;;;;;35.72;19.60;;;;;;;;;;4956928;28;20123;-74
2022/03/28 07:31:48;;;;;;;35.35;19.45;;;;;;;;;;4956997;28;20490;-73
2022/03/28 07:34:29;;;;;;;35.08;19.30;;;;;;;;;;4954504;28;20094;-73
2022/03/28 07:36:59;;;;;;;28.67;17.88;;;;;;;;;;4945625;28;20118;-72
2022/03/28 07:39:25;;;;;;;46.75;18.80;;;;;;;;;;4952270;28;20039;-74
2022/03/28 07:41:52;;;;;;;33.72;18.67;;;;;;;;;;4945918;28;20382;-75
2022/03/28 07:44:20;;;;;;;38.78;18.45;;;;;;;;;;4949672;28;20063;-71
2022/03/28 07:46:47;;;;;;;31.77;18.73;;;;;;;;;;4935142;28;20511;-73
2022/03/28 07:49:13;;;;;;;32.42;17.55;;;;;;;;;;4936698;29;20023;-73
2022/03/28 07:51:39;;;;;;;27.23;16.60;;;;;;;;;;4936612;29;20090;-74
2022/03/28 07:54:05;;;;;;;34.35;17.40;;;;;;;;;;4936700;29;20028;-75
2022/03/28 07:56:32;;;;;;;33.33;18.65;;;;;;;;;;4936678;29;20043;-76
2022/03/28 07:58:58;;;;;;;34.55;17.17;;;;;;;;;;4936590;29;20032;-76
2022/03/28 08:01:25;;;;;;;34.20;16.83;;;;;;;;;;4938817;29;20103;-76
2022/03/28 08:03:51;;;;;;;31.98;16.88;;;;;;;;;;4955653;28;20054;-76
2022/03/28 08:06:17;;;;;;;30.48;16.40;;;;;;;;;;4955802;29;20043;-75
2022/03/28 08:08:43;;;;;;;31.08;16.85;;;;;;;;;;4954811;28;20035;-77
2022/03/28 08:11:10;;;;;;;32.97;16.90;;;;;;;;;;4954663;29;20047;-75
2022/03/28 08:13:36;;;;;;;27.80;16.80;;;;;;;;;;4954799;28;20187;-77
2022/03/28 08:16:03;;;;;;;32.05;16.90;;;;;;;;;;4955125;28;20110;-77
2022/03/28 08:18:30;;;;;;;30.65;16.85;;;;;;;;;;4955349;28;20031;-76
2022/03/28 08:20:56;;;;;;;36.03;17.90;;;;;;;;;;4955320;29;20479;-76
2022/03/28 08:23:23;;;;;;;27.00;16.63;;;;;;;;;;4955679;28;20116;-76
2022/03/28 08:25:50;;;;;;;25.95;15.88;;;;;;;;;;4954467;28;20031;-74
2022/03/28 08:28:16;;;;;;;31.35;16.92;;;;;;;;;;4955269;28;20101;-74
2022/03/28 08:30:42;;;;;;;30.63;16.23;;;;;;;;;;4955593;28;20426;-76
2022/03/28 08:33:09;;;;;;;28.70;18.15;;;;;;;;;;4956364;29;20027;-78
2022/03/28 08:35:37;;;;;;;32.10;16.80;;;;;;;;;;4954585;29;20039;-74
2022/03/28 08:38:06;;;;;;;35.58;16.58;;;;;;;;;;4955326;28;20410;-79
2022/03/28 08:40:32;;;;;;;32.90;16.55;;;;;;;;;;4955486;28;20070;-76
2022/03/28 08:42:59;;;;;;;34.78;17.48;;;;;;;;;;4954927;29;20031;-76
2022/03/28 08:45:24;;;;;;;26.92;16.58;;;;;;;;;;4954756;28;20035;-75
2022/03/28 08:47:50;;;;;;;30.45;16.67;;;;;;;;;;4954794;28;20050;-74
2022/03/28 08:50:17;;;;;;;26.58;15.93;;;;;;;;;;4953795;29;20032;-74
2022/03/28 08:52:43;;;;;;;24.63;15.80;;;;;;;;;;4955280;29;20023;-75
2022/03/28 08:55:11;;;;;;;26.63;15.77;;;;;;;;;;4954801;28;20114;-75
2022/03/28 08:57:37;;;;;;;26.17;16.20;;;;;;;;;;4954622;29;20027;-76
2022/03/28 09:00:06;;;;;;;28.88;17.17;;;;;;;;;;4955589;28;20466;-76
2022/03/28 09:02:42;;;;;;;29.38;15.20;;;;;;;;;;4954623;28;20103;-77
2022/03/28 09:05:12;;;;;;;23.83;14.75;;;;;;;;;;4954705;28;20058;-74
2022/03/28 09:07:38;;;;;;;35.50;16.33;;;;;;;;;;4954737;28;20067;-75
2022/03/28 09:10:16;;;;;;;27.05;15.93;;;;;;;;;;4954628;29;20099;-73
2022/03/28 09:13:11;;;;;;;26.90;16.42;;;;;;;;;;4954730;28;20497;-75
2022/03/28 09:15:48;;;;;;;30.75;14.65;;;;;;;;;;4954664;29;20038;-74
2022/03/28 09:18:27;;;;;;;23.33;13.80;;;;;;;;;;4954577;28;20052;-74
2022/03/28 09:20:57;;;;;;;20.85;13.88;;;;;;;;;;4953305;29;20046;-74
2022/03/28 09:23:35;;;;;;;21.70;14.05;;;;;;;;;;4954435;28;20038;-78
2022/03/28 09:26:11;;;;;;;22.48;13.80;;;;;;;;;;4954297;28;20067;-75
2022/03/28 09:28:56;;;;;;;22.95;13.95;;;;;;;;;;4951104;29;20066;-77
2022/03/28 09:31:44;;;;;;;25.75;13.98;;;;;;;;;;4953937;28;20031;-73
2022/03/28 09:34:17;;;;;;;24.33;14.13;;;;;;;;;;4953992;28;20039;-76
2022/03/28 09:36:48;;;;;;;31.55;16.42;;;;;;;;;;4953677;28;20057;-75
2022/03/28 09:39:26;;;;;;;21.08;13.15;;;;;;;;;;4954267;28;20114;-77
2022/03/28 09:42:11;;;;;;;26.63;13.70;;;;;;;;;;4952277;28;20454;-78
2022/03/28 09:44:49;;;;;;;24.48;14.25;;;;;;;;;;4948326;29;20513;-76
2022/03/28 09:47:18;;;;;;;24.45;13.93;;;;;;;;;;4952178;28;20506;-74
2022/03/28 09:49:47;;;;;;;23.20;14.15;;;;;;;;;;4950976;28;20031;-76
2022/03/28 09:52:14;;;;;;;25.85;15.60;;;;;;;;;;4944969;29;20042;-76
2022/03/28 09:55:06;;;;;;;25.25;14.07;;;;;;;;;;4949012;29;20027;-76
2022/03/28 09:57:34;;;;;;;23.90;13.13;;;;;;;;;;4952266;29;20071;-77
2022/03/28 10:00:17;;;;;;;26.33;14.40;;;;;;;;;;4952976;28;20366;-76
2022/03/28 10:02:43;;;;;;;24.70;12.07;;;;;;;;;;4953581;29;20071;-74
2022/03/28 10:05:10;;;;;;;27.17;15.32;;;;;;;;;;4950230;28;20027;-76
2022/03/28 10:07:36;;;;;;;35.40;15.77;;;;;;;;;;4950338;28;20043;-75
2022/03/28 10:10:03;;;;;;;22.27;14.98;;;;;;;;;;4953079;28;20046;-72
2022/03/28 10:12:29;;;;;;;25.35;14.82;;;;;;;;;;4953294;28;20054;-74
2022/03/28 10:15:01;;;;;;;21.10;14.00;;;;;;;;;;4953521;28;20371;-78
2022/03/28 10:17:30;;;;;;;28.30;15.48;;;;;;;;;;4953220;28;20047;-75
2022/03/28 10:19:56;;;;;;;29.35;15.23;;;;;;;;;;4953353;28;20023;-77
2022/03/28 10:22:30;;;;;;;24.13;14.93;;;;;;;;;;4953479;28;20043;-77
2022/03/28 10:24:57;;;;;;;;;;;;;;;;;;4953985;28;20067;-76
2022/03/28 10:27:24;;;;;;;25.52;16.15;;;;;;;;;;4952047;29;19914;-78
2022/03/28 10:29:51;;;;;;;27.33;15.10;;;;;;;;;;4948776;28;20038;-75
2022/03/28 10:32:20;;;;;;;24.83;15.57;;;;;;;;;;4955238;28;20058;-74
2022/03/28 10:35:06;;;;;;;28.98;15.13;;;;;;;;;;4952350;28;20035;-75
2022/03/28 10:37:48;;;;;;;29.75;15.95;;;;;;;;;;4953151;28;20031;-74
2022/03/28 10:40:28;;;;;;;27.35;15.07;;;;;;;;;;4953177;29;20035;-76
2022/03/28 10:43:14;;;;;;;29.27;15.85;;;;;;;;;;4953631;29;20039;-75
2022/03/28 10:46:10;;;;;;;30.05;16.40;;;;;;;;;;4953255;29;20186;-75
2022/03/28 10:48:42;;;;;;;26.58;15.57;;;;;;;;;;4953478;28;20054;-75
2022/03/28 10:51:18;;;;;;;31.48;16.23;;;;;;;;;;4956887;29;20039;-73
2022/03/28 10:53:48;;;;;;;29.70;16.52;;;;;;;;;;4955972;29;20114;-75
2022/03/28 10:56:17;;;;;;;26.95;16.42;;;;;;;;;;4955859;28;20036;-76
2022/03/28 10:58:52;;;;;;;33.15;17.25;;;;;;;;;;4955908;28;20031;-74
2022/03/28 11:01:23;;;;;;;27.92;16.05;;;;;;;;;;4956575;28;20036;-75
2022/03/28 11:03:53;;;;;;;25.45;16.65;;;;;;;;;;4957321;28;20391;-74
2022/03/28 11:06:40;;;;;;;25.42;16.92;;;;;;;;;;4956640;28;20044;-73
2022/03/28 11:09:06;;;;;;;29.67;16.13;;;;;;;;;;4956501;29;20039;-73
2022/03/28 11:11:33;;;;;;;24.70;14.80;;;;;;;;;;4955379;28;20502;-74
2022/03/28 11:14:09;;;;;;;26.90;15.30;;;;;;;;;;4956352;28;20035;-74
2022/03/28 11:16:53;;;;;;;25.00;15.27;;;;;;;;;;4956216;28;20034;-74
2022/03/28 11:19:29;;;;;;;28.17;15.15;;;;;;;;;;4956377;28;20043;-73
2022/03/28 11:22:04;;;;;;;27.17;16.45;;;;;;;;;;4956072;28;20027;-73
2022/03/28 11:24:45;;;;;;;25.15;14.60;;;;;;;;;;4956697;28;20072;-75
2022/03/28 11:27:13;;;;;;;30.02;15.75;;;;;;;;;;4956717;28;20043;-74
2022/03/28 11:29:40;;;;;;;19.40;14.13;;;;;;;;;;4956942;28;20023;-73
2022/03/28 11:32:08;;;;;;;20.52;12.90;;;;;;;;;;4956907;28;20043;-72
2022/03/28 11:34:34;;;;;;;21.52;13.77;;;;;;;;;;4956929;28;20015;-75
2022/03/28 11:37:02;;;;;;;22.58;12.38;;;;;;;;;;4956709;28;20433;-73
2022/03/28 11:39:29;;;;;;;21.60;12.00;;;;;;;;;;4956674;28;20023;-76
2022/03/28 11:41:55;;;;;;;21.20;12.90;;;;;;;;;;4956885;28;20027;-75
2022/03/28 11:44:21;;;;;;;25.67;14.23;;;;;;;;;;4956378;28;20381;-71
2022/03/28 11:47:01;;;;;;;22.40;12.70;;;;;;;;;;4956178;28;20039;-74
2022/03/28 11:49:27;;;;;;;22.25;12.27;;;;;;;;;;4956827;28;20043;-72
2022/03/28 11:51:53;;;;;;;19.42;12.75;;;;;;;;;;4956531;28;20091;-73
2022/03/28 11:54:20;;;;;;;17.42;11.43;;;;;;;;;;4956505;28;20027;-76
2022/03/28 11:59:38;;;;;;;19.75;11.48;;;;;;;;;;4955757;28;20439;-72
2022/03/28 12:02:08;;;;;;;24.95;11.85;;;;;;;;;;4956097;29;20036;-76
2022/03/28 12:04:43;;;;;;;18.65;12.38;;;;;;;;;;4956199;28;20043;-74
2022/03/28 12:07:09;;;;;;;19.42;11.50;;;;;;;;;;4956066;28;20043;-72
2022/03/28 12:09:39;;;;;;;21.42;12.23;;;;;;;;;;4956061;28;20102;-71
2022/03/28 12:12:06;;;;;;;17.45;11.32;;;;;;;;;;4955957;28;20035;-73
2022/03/28 12:14:32;;;;;;;30.05;12.40;;;;;;;;;;4956607;28;20063;-75
2022/03/28 12:16:58;;;;;;;24.58;13.30;;;;;;;;;;4956021;28;20222;-74
2022/03/28 12:19:29;;;;;;;22.33;12.68;;;;;;;;;;4956502;28;20023;-76
2022/03/28 12:21:57;;;;;;;24.63;12.88;;;;;;;;;;4955936;28;20046;-72
2022/03/28 12:24:25;;;;;;;19.92;12.15;;;;;;;;;;4956476;28;20382;-76
2022/03/28 12:26:53;;;;;;;23.38;13.13;;;;;;;;;;4956019;28;20042;-74
2022/03/28 12:29:19;;;;;;;18.48;12.73;;;;;;;;;;4955707;28;20036;-74
2022/03/28 12:31:47;;;;;;;20.58;12.63;;;;;;;;;;4956756;28;20035;-75
2022/03/28 12:34:14;;;;;;;21.58;13.02;;;;;;;;;;4956238;28;20027;-77
2022/03/28 12:36:41;;;;;;;26.80;15.98;;;;;;;;;;4955966;28;20035;-76
2022/03/28 12:39:10;;;;;;;28.88;18.17;;;;;;;;;;4955983;28;20031;-76
2022/03/28 12:41:40;;;;;;;29.92;18.80;;;;;;;;;;4955637;28;20603;-76
2022/03/28 12:44:13;;;;;;;29.00;18.10;;;;;;;;;;4955908;28;20438;-75
2022/03/28 12:46:39;;;;;;;31.58;17.20;;;;;;;;;;4954440;28;20046;-77
2022/03/28 12:49:16;;;;;;;29.67;18.23;;;;;;;;;;4955488;28;20549;-77
2022/03/28 12:51:43;;;;;;;31.23;19.05;;;;;;;;;;4955459;28;20043;-77
2022/03/28 12:54:14;;;;;;;27.95;17.67;;;;;;;;;;4955318;28;20386;-76
2022/03/28 12:56:50;;;;;;;27.13;18.15;;;;;;;;;;4955210;28;20035;-78
2022/03/28 12:59:21;;;;;;;34.35;22.02;;;;;;;;;;4952551;28;20047;-79
2022/03/28 13:01:48;;;;;;;35.22;21.80;;;;;;;;;;4955315;28;20388;-77
2022/03/28 13:04:17;;;;;;;36.95;20.90;;;;;;;;;;4955143;29;20024;-77
2022/03/28 13:06:50;;;;;;;31.35;19.48;;;;;;;;;;4954951;28;20035;-77
2022/03/28 13:09:17;;;;;;;31.05;19.52;;;;;;;;;;4954768;29;20043;-75
2022/03/28 13:11:43;;;;;;;29.38;18.77;;;;;;;;;;4953890;28;20039;-76
2022/03/28 13:14:26;;;;;;;31.60;19.20;;;;;;;;;;4954723;28;20117;-77
2022/03/28 13:17:09;;;;;;;26.80;18.50;;;;;;;;;;4954314;28;20100;-76
2022/03/28 13:19:39;;;;;;;29.65;19.17;;;;;;;;;;4954349;28;20128;-75
2022/03/28 13:22:07;;;;;;;33.35;19.40;;;;;;;;;;4954430;28;20031;-76
2022/03/28 13:24:34;;;;;;;28.95;19.25;;;;;;;;;;4954566;28;20102;-76
2022/03/28 13:29:53;;;;;;;32.45;19.92;;;;;;;;;;4954416;29;20502;-77
2022/03/28 13:32:19;;;;;;;31.27;18.73;;;;;;;;;;4954962;29;20478;-76
2022/03/28 13:34:45;;;;;;;30.60;18.17;;;;;;;;;;4954907;28;20038;-77
2022/03/28 13:37:11;;;;;;;24.75;18.08;;;;;;;;;;4954441;28;20028;-75
2022/03/28 13:39:37;;;;;;;25.13;17.10;;;;;;;;;;4954493;29;20117;-76
2022/03/28 13:42:04;;;;;;;24.90;16.63;;;;;;;;;;4954108;29;20027;-76
2022/03/28 13:44:30;;;;;;;22.30;16.08;;;;;;;;;;4954583;29;20097;-76
2022/03/28 13:46:57;;;;;;;24.52;15.75;;;;;;;;;;4954672;28;20023;-77
2022/03/28 13:49:22;;;;;;;24.90;15.27;;;;;;;;;;4954476;29;20043;-74
2022/03/28 13:51:48;;;;;;;25.63;16.48;;;;;;;;;;4954322;29;20394;-77
2022/03/28 13:54:15;;;;;;;23.05;15.05;;;;;;;;;;4954389;29;20114;-76
2022/03/28 13:56:41;;;;;;;27.58;16.98;;;;;;;;;;4954027;28;20051;-74
2022/03/28 13:59:07;;;;;;;30.40;18.20;;;;;;;;;;4954251;29;20063;-73
2022/03/28 14:01:34;;;;;;;27.15;16.73;;;;;;;;;;4954570;29;20030;-77
2022/03/28 14:04:02;;;;;;;28.65;15.98;;;;;;;;;;4954030;29;20063;-74
2022/03/28 14:06:28;;;;;;;29.92;15.82;;;;;;;;;;4953937;28;20107;-75
2022/03/28 14:08:54;;;;;;;22.90;16.15;;;;;;;;;;4954284;29;20184;-75
2022/03/28 14:11:21;;;;;;;27.67;16.90;;;;;;;;;;4954154;29;20047;-76
2022/03/28 14:13:48;;;;;;;22.50;14.80;;;;;;;;;;4954429;28;20038;-75
2022/03/28 14:16:19;;;;;;;23.67;15.38;;;;;;;;;;4952993;28;20027;-75
2022/03/28 14:18:49;;;;;;;19.50;13.75;;;;;;;;;;4953913;28;20105;-74
2022/03/28 14:21:16;;;;;;;22.55;14.38;;;;;;;;;;4953496;29;20099;-76
2022/03/28 14:23:43;;;;;;;25.33;16.73;;;;;;;;;;4956509;28;20078;-75
2022/03/28 14:26:13;;;;;;;22.27;15.13;;;;;;;;;;4957792;28;20047;-77
2022/03/28 14:28:39;;;;;;;23.38;14.68;;;;;;;;;;4958111;28;20043;-77
2022/03/28 14:31:05;;;;;;;26.20;14.48;;;;;;;;;;4958633;28;20041;-77
2022/03/28 14:33:31;;;;;;;21.42;15.25;;;;;;;;;;4958285;28;20486;-76